createdAt,value
2022-10-18T00:00:19.666Z,73.80
2022-10-18T00:02:48.050Z,73.80
2022-10-18T00:05:17.642Z,73.80
2022-10-18T00:07:51.713Z,73.70
2022-10-18T00:10:20.121Z,73.80
2022-10-18T00:13:03.415Z,73.80
2022-10-18T00:15:31.535Z,73.80
2022-10-18T00:17:59.586Z,73.70
2022-10-18T00:20:29.613Z,73.70
2022-10-18T00:22:57.949Z,73.70
2022-10-18T00:25:26.068Z,73.80
2022-10-18T00:28:01.259Z,73.70
2022-10-18T00:30:29.432Z,73.80
2022-10-18T00:32:58.114Z,73.80
2022-10-18T00:35:28.184Z,73.80
2022-10-18T00:37:56.282Z,73.70
2022-10-18T00:40:27.761Z,73.70
2022-10-18T00:42:55.918Z,73.80
2022-10-18T00:45:28.978Z,73.70
2022-10-18T00:48:02.573Z,73.80
2022-10-18T00:50:35.375Z,73.70
2022-10-18T00:53:06.924Z,73.70
2022-10-18T00:55:35.552Z,73.70
2022-10-18T00:58:04.960Z,73.70
2022-10-18T01:00:34.758Z,73.70
2022-10-18T01:03:02.829Z,73.70
2022-10-18T01:05:32.858Z,73.70
2022-10-18T01:08:16.000Z,73.70
2022-10-18T01:11:06.697Z,73.70
2022-10-18T01:13:48.894Z,73.70
2022-10-18T01:16:22.288Z,73.60
2022-10-18T01:18:54.798Z,73.70
2022-10-18T01:21:46.870Z,73.70
2022-10-18T01:24:48.797Z,73.70
2022-10-18T01:27:36.343Z,73.60
2022-10-18T01:30:53.312Z,73.60
2022-10-18T01:33:38.273Z,73.70
2022-10-18T01:36:15.458Z,73.60
2022-10-18T01:41:30.831Z,73.60
2022-10-18T01:44:01.875Z,73.60
2022-10-18T01:46:35.152Z,73.60
2022-10-18T01:49:03.470Z,73.60
2022-10-18T01:51:43.693Z,73.70
2022-10-18T01:54:14.431Z,73.60
2022-10-18T01:56:57.681Z,73.60
2022-10-18T01:59:37.688Z,73.60
2022-10-18T02:02:16.873Z,73.60
2022-10-18T02:04:54.462Z,73.60
2022-10-18T02:07:33.992Z,73.60
2022-10-18T02:10:11.197Z,73.60
2022-10-18T02:12:44.077Z,73.60
2022-10-18T02:15:15.459Z,73.60
2022-10-18T02:17:46.513Z,73.60
2022-10-18T02:20:18.643Z,73.60
2022-10-18T02:22:48.006Z,73.70
2022-10-18T02:25:21.443Z,73.60
2022-10-18T02:27:49.593Z,73.60
2022-10-18T02:30:18.622Z,73.60
2022-10-18T02:32:52.419Z,73.60
2022-10-18T02:35:26.163Z,73.60
2022-10-18T02:40:47.549Z,73.60
2022-10-18T02:43:15.738Z,73.60
2022-10-18T02:45:46.646Z,73.60
2022-10-18T02:48:18.751Z,73.60
2022-10-18T02:50:52.826Z,73.50
2022-10-18T02:53:27.227Z,73.60
2022-10-18T02:55:55.636Z,73.50
2022-10-18T02:58:26.551Z,73.50
2022-10-18T03:00:54.429Z,73.50
2022-10-18T03:03:31.326Z,73.50
2022-10-18T03:05:59.484Z,73.50
2022-10-18T03:08:27.663Z,73.50
2022-10-18T03:10:55.756Z,73.50
2022-10-18T03:13:24.045Z,73.50
2022-10-18T03:15:52.152Z,73.50
2022-10-18T03:18:23.304Z,73.50
2022-10-18T03:20:52.782Z,73.50
2022-10-18T03:23:20.884Z,73.50
2022-10-18T03:25:49.035Z,73.50
2022-10-18T03:28:20.037Z,73.50
2022-10-18T03:30:49.987Z,73.50
2022-10-18T03:33:24.201Z,73.50
2022-10-18T03:35:53.634Z,73.50
2022-10-18T03:38:28.072Z,73.50
2022-10-18T03:40:56.149Z,73.50
2022-10-18T03:43:24.575Z,73.50
2022-10-18T03:45:52.908Z,73.50
2022-10-18T03:48:21.028Z,73.50
2022-10-18T03:50:49.224Z,73.50
2022-10-18T03:53:18.818Z,73.40
2022-10-18T03:55:52.658Z,73.50
2022-10-18T03:58:21.214Z,73.50
2022-10-18T04:00:56.591Z,73.40
2022-10-18T04:03:25.197Z,73.40
2022-10-18T04:05:53.287Z,74.00
2022-10-18T04:08:36.638Z,73.40
2022-10-18T04:11:08.312Z,73.40
2022-10-18T04:13:36.758Z,73.40
2022-10-18T04:16:05.426Z,73.40
2022-10-18T04:18:33.503Z,73.40
2022-10-18T04:21:01.773Z,73.40
2022-10-18T04:23:40.684Z,73.40
2022-10-18T04:26:08.847Z,73.40
2022-10-18T04:28:46.566Z,73.40
2022-10-18T04:31:17.790Z,73.40
2022-10-18T04:33:45.884Z,73.40
2022-10-18T04:36:14.106Z,73.50
2022-10-18T04:38:52.806Z,73.40
2022-10-18T04:41:21.009Z,73.40
2022-10-18T04:43:49.214Z,73.40
2022-10-18T04:46:17.394Z,73.40
2022-10-18T04:48:45.504Z,73.40
2022-10-18T04:51:13.631Z,73.40
2022-10-18T04:53:41.752Z,73.40
2022-10-18T04:56:18.550Z,73.40
2022-10-18T04:58:46.753Z,73.40
2022-10-18T05:01:15.030Z,73.40
2022-10-18T05:03:43.128Z,73.30
2022-10-18T05:06:11.524Z,73.40
2022-10-18T05:08:39.596Z,73.30
2022-10-18T05:11:07.834Z,73.40
2022-10-18T05:13:38.252Z,73.40
2022-10-18T05:16:06.525Z,73.30
2022-10-18T05:18:34.704Z,73.40
2022-10-18T05:21:02.792Z,73.30
2022-10-18T05:23:33.489Z,73.40
2022-10-18T05:26:03.882Z,73.40
2022-10-18T05:28:40.760Z,73.30
2022-10-18T05:31:13.865Z,73.40
2022-10-18T05:33:41.980Z,73.40
2022-10-18T05:36:10.877Z,73.40
2022-10-18T05:38:42.275Z,73.40
2022-10-18T05:41:10.805Z,73.40
2022-10-18T05:43:39.092Z,73.40
2022-10-18T05:46:13.549Z,73.30
2022-10-18T05:48:45.228Z,73.30
2022-10-18T05:51:25.908Z,73.30
2022-10-18T05:53:54.778Z,73.30
2022-10-18T05:56:22.935Z,73.30
2022-10-18T05:58:54.445Z,73.30
2022-10-18T06:01:22.583Z,73.30
2022-10-18T06:03:52.221Z,73.30
2022-10-18T06:06:21.291Z,73.30
2022-10-18T06:08:51.546Z,73.30
2022-10-18T06:11:21.476Z,73.30
2022-10-18T06:13:51.225Z,73.30
2022-10-18T06:16:22.216Z,73.30
2022-10-18T06:18:53.060Z,73.30
2022-10-18T06:21:22.260Z,73.30
2022-10-18T06:23:50.932Z,73.30
2022-10-18T06:26:19.191Z,73.90
2022-10-18T06:28:47.444Z,73.30
2022-10-18T06:31:16.625Z,73.30
2022-10-18T06:33:45.599Z,73.30
2022-10-18T06:36:17.391Z,73.40
2022-10-18T06:38:45.545Z,73.40
2022-10-18T06:41:13.952Z,73.30
2022-10-18T06:43:42.410Z,73.50
2022-10-18T06:46:10.632Z,73.60
2022-10-18T06:48:40.302Z,73.60
2022-10-18T06:51:09.383Z,73.60
2022-10-18T06:53:44.444Z,73.60
2022-10-18T06:56:21.629Z,73.60
2022-10-18T06:58:49.928Z,73.50
2022-10-18T07:01:19.053Z,73.40
2022-10-18T07:03:48.810Z,73.50
2022-10-18T07:06:19.652Z,73.40
2022-10-18T07:08:50.977Z,73.40
2022-10-18T07:11:21.274Z,73.40
2022-10-18T07:13:49.477Z,73.40
2022-10-18T07:16:19.142Z,73.40
2022-10-18T07:18:49.608Z,73.50
2022-10-18T07:21:19.442Z,73.40
2022-10-18T07:23:49.552Z,73.40
2022-10-18T07:26:19.480Z,73.40
2022-10-18T07:28:49.927Z,73.40
2022-10-18T07:31:18.629Z,73.30
2022-10-18T07:33:46.719Z,73.30
2022-10-18T07:36:15.322Z,73.30
2022-10-18T07:38:44.617Z,73.30
2022-10-18T07:41:15.474Z,73.30
2022-10-18T07:43:44.527Z,73.30
2022-10-18T07:46:13.172Z,73.30
2022-10-18T07:48:41.357Z,73.30
2022-10-18T07:51:09.974Z,73.30
2022-10-18T07:53:38.549Z,73.30
2022-10-18T07:56:09.633Z,73.30
2022-10-18T07:58:39.312Z,73.20
2022-10-18T08:01:09.084Z,73.20
2022-10-18T08:03:38.265Z,73.20
2022-10-18T08:06:09.112Z,73.20
2022-10-18T08:08:37.602Z,73.20
2022-10-18T08:11:08.439Z,73.20
2022-10-18T08:13:38.082Z,73.20
2022-10-18T08:16:08.232Z,73.20
2022-10-18T08:18:37.100Z,73.20
2022-10-18T08:21:07.628Z,73.10
2022-10-18T08:23:42.569Z,73.10
2022-10-18T08:26:14.083Z,73.10
2022-10-18T08:28:53.566Z,73.60
2022-10-18T08:31:29.541Z,73.00
2022-10-18T08:33:57.979Z,72.90
2022-10-18T08:36:26.245Z,73.00
2022-10-18T08:38:54.477Z,72.90
2022-10-18T08:41:42.642Z,73.00
2022-10-18T08:44:18.230Z,73.00
2022-10-18T08:46:48.569Z,73.00
2022-10-18T08:49:24.124Z,73.00
2022-10-18T08:51:53.370Z,73.00
2022-10-18T08:54:28.493Z,73.00
2022-10-18T08:57:01.023Z,73.00
2022-10-18T08:59:43.116Z,73.00
2022-10-18T09:02:24.018Z,73.00
2022-10-18T09:04:57.570Z,73.00
2022-10-18T09:07:42.415Z,72.90
2022-10-18T09:10:21.756Z,72.90
2022-10-18T09:13:09.478Z,72.90
2022-10-18T09:15:46.441Z,72.90
2022-10-18T09:18:27.140Z,72.90
2022-10-18T09:20:58.759Z,72.90
2022-10-18T09:23:39.504Z,72.80
2022-10-18T09:26:14.969Z,72.80
2022-10-18T09:28:52.925Z,72.80
2022-10-18T09:31:29.995Z,72.80
2022-10-18T09:34:06.629Z,72.70
2022-10-18T09:36:37.285Z,72.70
2022-10-18T09:39:10.770Z,72.80
2022-10-18T09:41:44.809Z,72.80
2022-10-18T09:44:19.882Z,72.80
2022-10-18T09:46:53.754Z,72.70
2022-10-18T09:49:26.713Z,72.70
2022-10-18T09:51:55.482Z,72.70
2022-10-18T09:54:29.192Z,72.70
2022-10-18T09:57:03.703Z,72.70
2022-10-18T09:59:36.456Z,72.70
2022-10-18T10:02:06.809Z,72.60
2022-10-18T10:04:35.437Z,72.70
2022-10-18T10:07:03.966Z,72.60
2022-10-18T10:09:46.920Z,72.60
2022-10-18T10:12:29.874Z,72.60
2022-10-18T10:15:09.614Z,72.60
2022-10-18T10:17:39.163Z,72.50
2022-10-18T10:20:19.012Z,72.40
2022-10-18T10:22:48.564Z,72.40
2022-10-18T10:25:23.763Z,72.40
2022-10-18T10:27:52.277Z,72.40
2022-10-18T10:30:26.625Z,73.10
2022-10-18T10:32:57.693Z,72.50
2022-10-18T10:35:52.641Z,72.40
2022-10-18T10:38:26.007Z,72.40
2022-10-18T10:40:54.998Z,72.40
2022-10-18T10:43:38.318Z,72.30
2022-10-18T10:46:10.737Z,72.30
2022-10-18T10:48:50.630Z,72.20
2022-10-18T10:51:28.994Z,72.20
2022-10-18T10:54:01.880Z,72.10
2022-10-18T10:56:32.301Z,72.10
2022-10-18T10:59:09.606Z,72.10
2022-10-18T11:01:37.824Z,72.10
2022-10-18T11:04:27.983Z,72.10
2022-10-18T11:07:05.180Z,72.10
2022-10-18T11:09:50.018Z,72.10
2022-10-18T11:12:33.153Z,72.10
2022-10-18T11:15:13.140Z,72.10
2022-10-18T11:17:47.547Z,72.10
2022-10-18T11:20:24.280Z,72.10
2022-10-18T11:22:59.847Z,72.10
2022-10-18T11:25:40.492Z,72.10
2022-10-18T11:28:20.741Z,72.10
2022-10-18T11:31:01.319Z,72.10
2022-10-18T11:34:06.972Z,72.10
2022-10-18T11:36:45.415Z,72.00
2022-10-18T11:39:38.633Z,72.00
2022-10-18T11:42:21.437Z,72.00
2022-10-18T11:44:58.358Z,72.10
2022-10-18T11:47:34.496Z,72.00
2022-10-18T11:50:13.726Z,72.00
2022-10-18T11:55:43.972Z,72.10
2022-10-18T11:58:25.240Z,72.00
2022-10-18T12:00:58.139Z,72.00
2022-10-18T12:03:34.517Z,72.00
2022-10-18T12:06:06.870Z,72.00
2022-10-18T12:08:38.570Z,71.90
2022-10-18T12:11:14.535Z,72.00
2022-10-18T12:13:48.308Z,71.90
2022-10-18T12:16:18.599Z,71.90
2022-10-18T12:18:54.011Z,71.90
2022-10-18T12:21:25.763Z,71.90
2022-10-18T12:23:58.219Z,71.90
2022-10-18T12:26:29.340Z,71.90
2022-10-18T12:29:12.215Z,71.90
2022-10-18T12:31:44.254Z,72.00
2022-10-18T12:34:38.972Z,72.00
2022-10-18T12:37:27.949Z,72.00
2022-10-18T12:40:18.607Z,72.10
2022-10-18T12:42:52.298Z,72.10
2022-10-18T12:45:29.287Z,72.10
2022-10-18T12:48:01.180Z,72.10
2022-10-18T12:50:36.122Z,72.10
2022-10-18T12:53:20.263Z,72.80
2022-10-18T12:55:52.413Z,72.10
2022-10-18T12:58:28.239Z,72.20
2022-10-18T13:01:01.219Z,72.20
2022-10-18T13:03:54.628Z,72.10
2022-10-18T13:06:23.708Z,72.20
2022-10-18T13:09:20.755Z,72.10
2022-10-18T13:11:49.388Z,72.10
2022-10-18T13:14:53.397Z,72.20
2022-10-18T13:17:37.234Z,72.10
2022-10-18T13:20:27.039Z,72.20
2022-10-18T13:23:08.463Z,72.10
2022-10-18T13:25:50.653Z,72.10
2022-10-18T13:28:28.692Z,72.00
2022-10-18T13:31:04.913Z,72.00
2022-10-18T13:33:35.740Z,72.00
2022-10-18T13:36:06.378Z,72.00
2022-10-18T13:38:40.280Z,72.10
2022-10-18T13:41:10.626Z,72.10
2022-10-18T13:44:12.021Z,72.10
2022-10-18T13:47:19.748Z,72.00
2022-10-18T13:53:17.408Z,72.00
2022-10-18T13:56:06.275Z,72.00
2022-10-18T13:58:53.765Z,72.00
2022-10-18T14:01:38.929Z,72.00
2022-10-18T14:04:39.425Z,72.00
2022-10-18T14:07:09.983Z,72.00
2022-10-18T14:09:47.852Z,72.00
2022-10-18T14:12:26.722Z,72.00
2022-10-18T14:15:00.604Z,72.00
2022-10-18T14:17:36.755Z,72.00
2022-10-18T14:20:18.412Z,71.90
2022-10-18T14:22:52.377Z,71.90
2022-10-18T14:25:23.986Z,72.00
2022-10-18T14:28:11.419Z,72.00
2022-10-18T14:30:54.454Z,72.00
2022-10-18T14:33:28.312Z,72.00
2022-10-18T14:36:05.383Z,72.00
2022-10-18T14:38:36.492Z,72.00
2022-10-18T14:41:16.292Z,72.00
2022-10-18T14:43:45.057Z,72.00
2022-10-18T14:46:19.989Z,71.90
2022-10-18T14:48:56.039Z,71.90
2022-10-18T14:51:24.397Z,72.00
2022-10-18T14:53:54.599Z,72.00
2022-10-18T14:56:29.106Z,71.90
2022-10-18T14:58:58.925Z,71.90
2022-10-18T15:01:30.635Z,71.90
2022-10-18T15:04:00.459Z,71.90
2022-10-18T15:06:29.261Z,72.00
2022-10-18T15:09:00.851Z,72.00
2022-10-18T15:11:29.508Z,72.00
2022-10-18T15:14:03.015Z,71.90
2022-10-18T15:16:33.043Z,72.00
2022-10-18T15:19:07.289Z,72.00
2022-10-18T15:21:36.895Z,71.90
2022-10-18T15:24:29.153Z,71.90
2022-10-18T15:27:00.580Z,71.90
2022-10-18T15:29:32.854Z,71.90
2022-10-18T15:32:09.105Z,71.80
2022-10-18T15:34:37.320Z,71.60
2022-10-18T15:37:18.419Z,71.60
2022-10-18T15:39:47.916Z,71.60
2022-10-18T15:42:38.019Z,71.60
2022-10-18T15:45:35.585Z,71.70
2022-10-18T15:48:21.306Z,72.30
2022-10-18T15:50:51.465Z,71.70
2022-10-18T15:53:51.269Z,71.70
2022-10-18T15:56:32.977Z,71.60
2022-10-18T15:59:04.046Z,71.60
2022-10-18T16:01:38.656Z,71.60
2022-10-18T16:04:22.046Z,71.60
2022-10-18T16:06:50.326Z,71.70
2022-10-18T16:09:20.674Z,71.70
2022-10-18T16:11:56.414Z,71.70
2022-10-18T16:14:26.417Z,71.70
2022-10-18T16:16:56.455Z,71.70
2022-10-18T16:19:24.540Z,71.70
2022-10-18T16:21:54.676Z,71.70
2022-10-18T16:24:23.281Z,71.70
2022-10-18T16:26:53.812Z,71.70
2022-10-18T16:29:25.534Z,71.70
2022-10-18T16:31:58.007Z,71.70
2022-10-18T16:34:26.959Z,71.70
2022-10-18T16:36:55.565Z,71.70
2022-10-18T16:39:24.305Z,71.80
2022-10-18T16:41:53.893Z,71.80
2022-10-18T16:44:21.978Z,71.80
2022-10-18T16:46:52.537Z,71.80
2022-10-18T16:49:24.320Z,71.80
2022-10-18T16:51:53.521Z,71.80
2022-10-18T16:54:21.645Z,71.80
2022-10-18T16:56:50.111Z,71.80
2022-10-18T16:59:29.867Z,71.90
2022-10-18T17:01:58.028Z,71.80
2022-10-18T17:04:26.210Z,71.80
2022-10-18T17:06:58.349Z,71.80
2022-10-18T17:09:26.596Z,71.90
2022-10-18T17:11:54.750Z,71.90
2022-10-18T17:14:24.234Z,71.90
2022-10-18T17:16:55.944Z,71.90
2022-10-18T17:19:25.371Z,72.00
2022-10-18T17:21:53.484Z,72.10
2022-10-18T17:24:21.568Z,72.10
2022-10-18T17:26:49.668Z,72.10
2022-10-18T17:29:17.727Z,72.10
2022-10-18T17:31:47.187Z,72.10
2022-10-18T17:34:21.227Z,72.10
2022-10-18T17:36:49.887Z,72.10
2022-10-18T17:39:18.035Z,72.10
2022-10-18T17:41:46.160Z,72.10
2022-10-18T17:44:14.288Z,72.10
2022-10-18T17:46:42.406Z,72.10
2022-10-18T17:49:13.951Z,72.10
2022-10-18T17:51:42.854Z,72.10
2022-10-18T17:54:11.148Z,72.10
2022-10-18T17:56:40.671Z,72.10
2022-10-18T17:59:08.788Z,72.10
2022-10-18T18:01:36.901Z,72.10
2022-10-18T18:04:05.235Z,72.10
2022-10-18T18:06:36.830Z,72.20
2022-10-18T18:09:08.070Z,72.20
2022-10-18T18:11:36.816Z,72.20
2022-10-18T18:14:08.872Z,72.90
2022-10-18T18:16:39.011Z,72.30
2022-10-18T18:19:09.829Z,72.20
2022-10-18T18:21:40.741Z,72.20
2022-10-18T18:24:10.129Z,72.20
2022-10-18T18:26:39.897Z,72.30
2022-10-18T18:29:08.483Z,72.20
2022-10-18T18:31:39.965Z,72.20
2022-10-18T18:34:11.401Z,72.20
2022-10-18T18:36:41.546Z,72.30
2022-10-18T18:39:10.668Z,72.30
2022-10-18T18:41:38.784Z,72.30
2022-10-18T18:44:07.483Z,72.30
2022-10-18T18:46:39.524Z,72.30
2022-10-18T18:49:08.992Z,72.30
2022-10-18T18:51:39.816Z,72.40
2022-10-18T18:54:10.689Z,72.40
2022-10-18T18:56:38.892Z,72.40
2022-10-18T18:59:08.070Z,72.40
2022-10-18T19:01:38.834Z,72.40
2022-10-18T19:04:08.677Z,72.40
2022-10-18T19:06:38.833Z,72.40
2022-10-18T19:09:12.430Z,72.50
2022-10-18T19:11:41.080Z,72.50
2022-10-18T19:14:09.430Z,72.50
2022-10-18T19:16:39.565Z,72.50
2022-10-18T19:19:09.132Z,72.50
2022-10-18T19:21:39.565Z,72.50
2022-10-18T19:24:10.119Z,72.50
2022-10-18T19:26:44.483Z,72.60
2022-10-18T19:29:15.340Z,72.50
2022-10-18T19:31:44.596Z,72.60
2022-10-18T19:34:14.647Z,72.50
2022-10-18T19:36:44.800Z,72.60
2022-10-18T19:39:18.209Z,72.60
2022-10-18T19:41:46.567Z,72.60
2022-10-18T19:44:14.693Z,72.60
2022-10-18T19:46:42.769Z,72.60
2022-10-18T19:49:11.090Z,72.60
2022-10-18T19:51:39.403Z,72.60
2022-10-18T19:54:07.542Z,72.70
2022-10-18T19:56:37.094Z,72.70
2022-10-18T19:59:05.527Z,72.70
2022-10-18T20:01:33.670Z,72.60
2022-10-18T20:04:03.736Z,72.60
2022-10-18T20:06:32.262Z,72.70
2022-10-18T20:09:00.546Z,72.60
2022-10-18T20:11:30.092Z,72.70
2022-10-18T20:14:00.226Z,72.70
2022-10-18T20:16:29.874Z,72.70
2022-10-18T20:18:58.858Z,72.70
2022-10-18T20:21:28.393Z,72.70
2022-10-18T20:23:57.015Z,72.80
2022-10-18T20:26:25.707Z,72.70
2022-10-18T20:28:57.734Z,72.70
2022-10-18T20:31:29.533Z,72.80
2022-10-18T20:33:59.353Z,72.70
2022-10-18T20:36:28.925Z,72.80
2022-10-18T20:38:57.744Z,72.80
2022-10-18T20:41:28.420Z,72.80
2022-10-18T20:43:58.298Z,72.80
2022-10-18T20:46:30.479Z,72.80
2022-10-18T20:48:58.740Z,72.90
2022-10-18T20:51:26.878Z,72.80
2022-10-18T20:53:55.105Z,72.80
2022-10-18T20:56:26.483Z,72.80
2022-10-18T20:58:57.822Z,72.80
2022-10-18T21:01:28.874Z,72.90
2022-10-18T21:03:59.953Z,72.90
2022-10-18T21:06:29.931Z,72.90
2022-10-18T21:09:00.112Z,72.90
2022-10-18T21:11:30.094Z,72.90
2022-10-18T21:14:00.221Z,72.90
2022-10-18T21:16:30.032Z,72.90
2022-10-18T21:19:02.425Z,72.90
2022-10-18T21:21:30.547Z,73.00
2022-10-18T21:24:01.275Z,72.90
2022-10-18T21:26:32.207Z,72.90
2022-10-18T21:29:00.545Z,73.00
2022-10-18T21:31:31.900Z,72.90
2022-10-18T21:34:02.742Z,73.00
2022-10-18T21:36:33.726Z,73.00
2022-10-18T21:39:01.620Z,73.00
2022-10-18T21:41:29.848Z,73.00
2022-10-18T21:43:57.922Z,73.00
2022-10-18T21:46:27.086Z,73.00
2022-10-18T21:48:58.073Z,73.00
2022-10-18T21:51:26.756Z,73.00
2022-10-18T21:53:56.527Z,73.00
2022-10-18T21:56:26.598Z,73.00
2022-10-18T21:58:54.824Z,73.00
2022-10-18T22:01:24.388Z,73.00
2022-10-18T22:03:54.288Z,73.10
2022-10-18T22:06:24.213Z,73.10
2022-10-18T22:08:53.940Z,73.10
2022-10-18T22:11:23.898Z,73.10
2022-10-18T22:13:52.822Z,73.10
2022-10-18T22:16:20.935Z,73.10
2022-10-18T22:18:50.118Z,73.10
2022-10-18T22:21:20.845Z,73.10
2022-10-18T22:23:51.910Z,73.10
2022-10-18T22:26:21.942Z,73.10
2022-10-18T22:28:56.167Z,73.10
2022-10-18T22:31:26.365Z,73.10
2022-10-18T22:33:55.348Z,73.10
2022-10-18T22:36:23.715Z,73.10
2022-10-18T22:38:53.429Z,73.10
2022-10-18T22:41:21.710Z,73.10
2022-10-18T22:43:51.467Z,73.10
2022-10-18T22:46:20.750Z,73.10
2022-10-18T22:48:49.153Z,73.10
2022-10-18T22:51:17.656Z,73.20
2022-10-18T22:53:46.422Z,73.20
2022-10-18T22:56:18.766Z,73.10
2022-10-18T22:58:48.000Z,73.10
2022-10-18T23:01:19.156Z,73.10
2022-10-18T23:03:47.888Z,73.20
2022-10-18T23:06:24.243Z,73.20
2022-10-18T23:08:53.776Z,73.20
2022-10-18T23:11:23.831Z,73.20
2022-10-18T23:13:52.365Z,73.20
2022-10-18T23:16:20.804Z,73.20
2022-10-18T23:18:51.969Z,73.20
2022-10-18T23:21:20.622Z,73.20
2022-10-18T23:23:48.932Z,73.20
2022-10-18T23:26:18.503Z,73.20
2022-10-18T23:28:49.543Z,73.20
2022-10-18T23:31:19.958Z,73.20
2022-10-18T23:33:50.150Z,73.20
2022-10-18T23:36:18.720Z,73.20
2022-10-18T23:38:47.218Z,73.20
2022-10-18T23:41:16.764Z,73.20
2022-10-18T23:46:17.613Z,73.20
2022-10-18T23:48:46.311Z,73.20
2022-10-18T23:51:14.625Z,73.20
2022-10-18T23:53:43.008Z,73.20
2022-10-18T23:56:12.917Z,73.20
2022-10-18T23:58:42.033Z,73.20
